Time;durP1;ratioP1;P1;durP2;ratioP2;P2;SDS_P1;SDS_P2;PMS_P1;PMS_P2;Temp;Humidity;BMP_temperature;BMP_pressure;BME280_temperature;BME280_humidity;BME280_pressure;Samples;Min_cycle;Max_cycle;Signal;HPM_P1;HPM_P2
2022/09/30 00:00:57;;;;;;;10.00;8.87;;;7.80;99.90;;;;;;5008830;28;20942;-88
2022/09/30 00:03:24;;;;;;;13.97;8.80;;;7.80;99.90;;;;;;5007770;28;20234;-87
2022/09/30 00:05:56;;;;;;;11.10;9.13;;;7.80;99.90;;;;;;5009516;28;20398;-88
2022/09/30 00:08:23;;;;;;;11.43;9.17;;;7.80;99.90;;;;;;5019631;28;20762;-88
2022/09/30 00:11:00;;;;;;;11.33;9.07;;;7.80;99.90;;;;;;5023164;28;20253;-89
2022/09/30 00:13:27;;;;;;;13.50;8.40;;;7.90;99.90;;;;;;5025660;28;20228;-87
2022/09/30 00:15:54;;;;;;;9.80;8.20;;;7.90;99.90;;;;;;5023609;28;20226;-87
2022/09/30 00:18:21;;;;;;;12.03;9.03;;;8.00;99.90;;;;;;5015847;28;20233;-87
2022/09/30 00:20:48;;;;;;;12.33;9.63;;;7.90;99.90;;;;;;5025000;28;20225;-87
2022/09/30 00:23:14;;;;;;;10.70;9.60;;;8.00;99.90;;;;;;5018819;28;20221;-86
2022/09/30 00:25:41;;;;;;;11.73;9.63;;;8.00;99.90;;;;;;5012208;28;20872;-87
2022/09/30 00:28:09;;;;;;;9.37;8.43;;;8.10;99.90;;;;;;5005451;28;20238;-88
2022/09/30 00:30:36;;;;;;;10.07;8.77;;;8.10;99.90;;;;;;5005517;28;20226;-87
2022/09/30 00:33:03;;;;;;;13.20;9.27;;;8.10;99.90;;;;;;5007714;28;20234;-87
2022/09/30 00:35:29;;;;;;;12.10;9.13;;;8.20;99.90;;;;;;5005229;28;20732;-87
2022/09/30 00:37:56;;;;;;;12.97;8.80;;;8.20;99.90;;;;;;5013054;28;20849;-87
2022/09/30 00:40:23;;;;;;;10.50;8.63;;;8.20;99.90;;;;;;5022514;28;20271;-86
2022/09/30 00:42:50;;;;;;;9.63;8.63;;;8.30;99.90;;;;;;5035432;28;20221;-85
2022/09/30 00:45:18;;;;;;;9.53;8.57;;;8.30;99.90;;;;;;5016880;28;20309;-85
2022/09/30 00:47:49;;;;;;;9.70;8.70;;;8.30;99.90;;;;;;5023281;28;20959;-85
2022/09/30 00:50:31;;;;;;;12.10;8.77;;;8.30;99.90;;;;;;5019936;28;20231;-86
2022/09/30 00:53:07;;;;;;;10.13;8.33;;;8.30;99.90;;;;;;5019463;28;20281;-85
2022/09/30 00:55:43;;;;;;;10.83;8.63;;;8.30;99.90;;;;;;5015344;28;20230;-85
2022/09/30 00:58:14;;;;;;;10.53;8.97;;;8.20;99.90;;;;;;5016981;28;20233;-88
2022/09/30 01:00:43;;;;;;;10.57;9.00;;;8.20;99.90;;;;;;5022302;28;20228;-88
2022/09/30 01:03:09;;;;;;;10.40;8.67;;;8.20;99.90;;;;;;5017451;28;20238;-87
2022/09/30 01:05:36;;;;;;;10.00;8.30;;;8.10;99.90;;;;;;5026887;28;20231;-85
2022/09/30 01:08:08;;;;;;;10.07;8.60;;;8.10;99.90;;;;;;5015641;28;20239;-87
2022/09/30 01:10:34;;;;;;;11.17;7.93;;;8.00;99.90;;;;;;5011561;28;20262;-88
2022/09/30 01:13:01;;;;;;;9.97;8.97;;;8.00;99.90;;;;;;5014952;28;20232;-88
2022/09/30 01:15:44;;;;;;;10.47;8.80;;;8.00;99.90;;;;;;5008763;28;20226;-88
2022/09/30 01:18:22;;;;;;;12.17;9.07;;;7.90;99.90;;;;;;5007009;28;20652;-87
2022/09/30 01:21:20;;;;;;;10.43;8.70;;;7.90;99.90;;;;;;5008321;28;20231;-88
2022/09/30 01:24:08;;;;;;;9.73;8.73;;;7.90;99.90;;;;;;5000054;28;20228;-87
2022/09/30 01:26:50;;;;;;;12.00;9.10;;;7.80;99.90;;;;;;5005667;28;20228;-87
2022/09/30 01:30:00;;;;;;;10.50;8.93;;;7.80;99.90;;;;;;5006242;28;20324;-89
2022/09/30 01:32:45;;;;;;;11.57;9.20;;;7.70;99.90;;;;;;5026061;28;20316;-87
2022/09/30 01:35:23;;;;;;;11.70;9.80;;;7.60;99.90;;;;;;5006046;28;20630;-86
2022/09/30 01:38:00;;;;;;;12.83;9.83;;;7.60;99.90;;;;;;5019660;28;20303;-88
2022/09/30 01:40:35;;;;;;;10.93;9.60;;;7.50;99.90;;;;;;5019016;28;20229;-89
2022/09/30 01:43:09;;;;;;;10.33;8.60;;;7.50;99.90;;;;;;5014160;28;20399;-88
2022/09/30 01:45:41;;;;;;;11.50;9.40;;;7.40;99.90;;;;;;5020214;28;20251;-89
2022/09/30 01:48:18;;;;;;;12.30;9.70;;;7.30;99.90;;;;;;5017145;28;20234;-88
2022/09/30 01:50:50;;;;;;;10.50;9.10;;;7.30;99.90;;;;;;5020079;28;20244;-87
2022/09/30 01:53:22;;;;;;;11.87;9.50;;;7.20;99.90;;;;;;5017615;28;20236;-87
2022/09/30 01:55:54;;;;;;;11.60;9.50;;;7.20;99.90;;;;;;5019007;28;20676;-87
2022/09/30 01:58:28;;;;;;;12.67;9.87;;;7.10;99.90;;;;;;5021225;28;20608;-86
2022/09/30 02:01:00;;;;;;;13.17;10.03;;;7.10;99.90;;;;;;5023670;28;20392;-86
2022/09/30 02:03:33;;;;;;;13.33;10.80;;;7.00;99.90;;;;;;5009463;28;20232;-86
2022/09/30 02:06:04;;;;;;;13.90;10.23;;;7.00;99.90;;;;;;5027002;28;20254;-86
2022/09/30 02:08:38;;;;;;;14.97;11.07;;;7.00;99.90;;;;;;5029209;28;20315;-87
2022/09/30 02:11:09;;;;;;;12.53;10.30;;;6.90;99.90;;;;;;5029248;28;20591;-86
2022/09/30 02:13:40;;;;;;;14.37;11.53;;;6.90;99.90;;;;;;5031271;28;20254;-87
2022/09/30 02:16:14;;;;;;;16.30;11.37;;;6.90;99.90;;;;;;5025730;28;20221;-87
2022/09/30 02:18:47;;;;;;;14.47;11.87;;;6.80;99.90;;;;;;5021405;28;20275;-84
2022/09/30 02:21:19;;;;;;;13.30;11.63;;;6.80;99.90;;;;;;5019510;28;20228;-85
2022/09/30 02:23:49;;;;;;;12.07;10.77;;;6.80;99.90;;;;;;5018808;28;20432;-88
2022/09/30 02:26:19;;;;;;;14.93;10.97;;;6.80;99.90;;;;;;5031313;28;20263;-88
2022/09/30 02:28:51;;;;;;;13.43;11.10;;;6.80;99.90;;;;;;5032400;28;20535;-88
2022/09/30 02:31:20;;;;;;;18.40;12.07;;;6.90;99.90;;;;;;5031042;28;20267;-88
2022/09/30 02:33:53;;;;;;;14.13;11.13;;;6.90;99.90;;;;;;5022337;28;20706;-88
2022/09/30 02:36:24;;;;;;;15.10;11.83;;;6.90;99.90;;;;;;5030452;28;20285;-86
2022/09/30 02:39:00;;;;;;;16.57;12.00;;;6.90;99.90;;;;;;5007568;28;20235;-87
2022/09/30 02:41:28;;;;;;;14.33;12.03;;;7.00;99.90;;;;;;5025088;28;20246;-88
2022/09/30 02:43:55;;;;;;;13.53;11.77;;;7.00;99.90;;;;;;5026067;28;20233;-89
2022/09/30 02:46:27;;;;;;;14.90;11.93;;;7.00;99.90;;;;;;5015368;28;20231;-88
2022/09/30 02:49:03;;;;;;;15.87;12.43;;;7.10;99.90;;;;;;5013823;28;20226;-88
2022/09/30 02:51:40;;;;;;;15.23;12.73;;;7.10;99.90;;;;;;5030331;28;20227;-89
2022/09/30 02:54:17;;;;;;;13.90;11.73;;;7.20;99.90;;;;;;5030556;28;20248;-88
2022/09/30 02:56:53;;;;;;;15.97;11.60;;;7.20;99.90;;;;;;5030974;28;20247;-88
2022/09/30 02:59:21;;;;;;;15.07;11.27;;;7.20;99.90;;;;;;5025734;28;20636;-88
2022/09/30 03:01:48;;;;;;;15.07;11.57;;;7.30;99.90;;;;;;5018154;28;20226;-87
2022/09/30 03:04:21;;;;;;;16.20;11.70;;;7.30;99.90;;;;;;5022510;28;20446;-88
2022/09/30 03:06:48;;;;;;;14.13;11.87;;;7.30;99.90;;;;;;5030399;28;20232;-88
2022/09/30 03:09:15;;;;;;;15.83;12.03;;;7.40;99.90;;;;;;5024733;28;20332;-87
2022/09/30 03:11:42;;;;;;;15.77;12.60;;;7.40;99.90;;;;;;5022212;28;20225;-87
2022/09/30 03:14:42;;;;;;;13.90;11.60;;;7.40;99.90;;;;;;5017346;28;20657;-87
2022/09/30 03:17:28;;;;;;;14.20;11.60;;;7.40;99.90;;;;;;5012019;28;20230;-87
2022/09/30 03:20:13;;;;;;;14.03;11.37;;;7.40;99.90;;;;;;5010311;28;20253;-87
2022/09/30 03:22:52;;;;;;;17.03;12.17;;;7.50;99.90;;;;;;5019854;28;20258;-89
2022/09/30 03:25:30;;;;;;;13.40;11.60;;;7.50;99.90;;;;;;5021498;28;20227;-88
2022/09/30 03:28:07;;;;;;;15.43;11.77;;;7.50;99.90;;;;;;5024504;28;20728;-89
2022/09/30 03:30:41;;;;;;;12.70;10.67;;;7.50;99.90;;;;;;5016430;28;20235;-90
2022/09/30 03:33:11;;;;;;;15.90;11.67;;;7.50;99.90;;;;;;5016300;28;20431;-88
2022/09/30 03:35:47;;;;;;;15.07;11.93;;;7.50;99.90;;;;;;5022134;28;20213;-88
2022/09/30 03:38:22;;;;;;;14.53;12.33;;;7.50;99.90;;;;;;5023399;28;20220;-88
2022/09/30 03:40:57;;;;;;;13.60;11.37;;;7.50;99.90;;;;;;5020233;28;20464;-88
2022/09/30 03:43:29;;;;;;;14.50;11.60;;;7.60;99.90;;;;;;5015308;28;20255;-88
2022/09/30 03:46:04;;;;;;;13.97;11.47;;;7.60;99.90;;;;;;5019872;28;20234;-88
2022/09/30 03:48:33;;;;;;;11.83;10.63;;;7.60;99.90;;;;;;5035790;28;20297;-88
2022/09/30 03:51:01;;;;;;;12.97;11.43;;;7.60;99.90;;;;;;5021311;28;20685;-87
2022/09/30 03:53:28;;;;;;;14.60;11.93;;;7.60;99.90;;;;;;5020247;28;20267;-87
2022/09/30 03:55:55;;;;;;;13.77;10.97;;;7.50;99.90;;;;;;5016943;28;20637;-88
2022/09/30 03:58:23;;;;;;;13.07;10.50;;;7.50;99.90;;;;;;5018166;28;20219;-88
2022/09/30 04:00:51;;;;;;;13.70;11.17;;;7.50;99.90;;;;;;5021415;28;20219;-89
2022/09/30 04:03:19;;;;;;;12.03;9.67;;;7.40;99.90;;;;;;5012204;28;20335;-88
2022/09/30 04:05:46;;;;;;;12.90;11.07;;;7.40;99.90;;;;;;5021302;28;20663;-87
2022/09/30 04:08:14;;;;;;;13.27;11.10;;;7.30;99.90;;;;;;5021708;28;20236;-87
2022/09/30 04:10:42;;;;;;;14.83;11.90;;;7.30;99.90;;;;;;5037240;28;20275;-88
2022/09/30 04:13:09;;;;;;;14.20;11.50;;;7.20;99.90;;;;;;5020958;28;20232;-87
2022/09/30 04:15:36;;;;;;;14.17;12.10;;;7.20;99.90;;;;;;5016272;28;20239;-86
2022/09/30 04:18:03;;;;;;;14.93;11.27;;;7.20;99.90;;;;;;5016982;28;20556;-87
2022/09/30 04:20:31;;;;;;;14.53;11.97;;;7.20;99.90;;;;;;5023059;28;20235;-88
2022/09/30 04:22:58;;;;;;;15.03;12.47;;;7.20;99.90;;;;;;5021231;28;20309;-85
2022/09/30 04:25:27;;;;;;;16.60;12.30;;;7.20;99.90;;;;;;5031155;28;20230;-89
2022/09/30 04:27:54;;;;;;;13.80;12.10;;;7.20;99.90;;;;;;5019103;28;20306;-87
2022/09/30 04:30:21;;;;;;;14.53;11.50;;;7.20;99.90;;;;;;5022403;28;20235;-89
2022/09/30 04:32:48;;;;;;;15.60;12.30;;;7.20;99.90;;;;;;5018180;28;20253;-89
2022/09/30 04:35:23;;;;;;;33.60;12.57;;;7.20;99.90;;;;;;5010451;28;20244;-91
2022/09/30 04:37:50;;;;;;;30.53;13.73;;;7.20;99.90;;;;;;5023686;28;20238;-85
2022/09/30 04:40:17;;;;;;;15.43;12.73;;;7.20;99.90;;;;;;5018673;28;20232;-80
2022/09/30 04:42:46;;;;;;;24.27;12.70;;;7.20;99.90;;;;;;5012948;28;20224;-81
2022/09/30 04:45:14;;;;;;;41.60;13.23;;;7.20;99.90;;;;;;5029200;28;20229;-81
2022/09/30 04:47:43;;;;;;;16.10;13.17;;;7.20;99.90;;;;;;5018437;28;20348;-80
2022/09/30 04:50:10;;;;;;;21.33;13.03;;;7.20;99.90;;;;;;5022757;28;20255;-80
2022/09/30 04:52:37;;;;;;;17.73;12.57;;;7.20;99.90;;;;;;5022644;28;20304;-80
2022/09/30 04:55:05;;;;;;;15.87;12.10;;;7.20;99.90;;;;;;5017728;28;20224;-80
2022/09/30 04:57:33;;;;;;;13.43;11.77;;;7.20;99.90;;;;;;5020055;28;20592;-80
2022/09/30 05:00:03;;;;;;;13.57;11.47;;;7.20;99.90;;;;;;5016671;28;20251;-79
2022/09/30 05:02:30;;;;;;;15.67;12.33;;;7.10;99.90;;;;;;5018035;28;20234;-80
2022/09/30 05:04:56;;;;;;;16.23;12.07;;;7.10;99.90;;;;;;5017599;28;20254;-79
2022/09/30 05:07:23;;;;;;;16.00;11.87;;;7.10;99.90;;;;;;5016469;28;20224;-79
2022/09/30 05:09:51;;;;;;;33.47;13.40;;;7.00;99.90;;;;;;5019251;28;20539;-81
2022/09/30 05:12:17;;;;;;;31.47;12.47;;;7.00;99.90;;;;;;5015904;28;20229;-81
2022/09/30 05:14:44;;;;;;;25.27;12.60;;;7.00;99.90;;;;;;5020715;28;20220;-79
2022/09/30 05:17:12;;;;;;;32.07;13.57;;;6.90;99.90;;;;;;5015679;28;20250;-80
2022/09/30 05:19:39;;;;;;;14.87;12.00;;;6.90;99.90;;;;;;5015549;28;20261;-80
2022/09/30 05:22:05;;;;;;;15.40;12.20;;;6.90;99.90;;;;;;5018758;28;20274;-80
2022/09/30 05:24:32;;;;;;;16.57;12.80;;;6.80;99.90;;;;;;5017125;28;20230;-80
2022/09/30 05:26:59;;;;;;;17.07;12.30;;;6.80;99.90;;;;;;5021267;28;20269;-79
2022/09/30 05:29:26;;;;;;;13.47;11.80;;;6.80;99.90;;;;;;5020176;28;20301;-79
2022/09/30 05:31:53;;;;;;;15.30;12.40;;;6.80;99.90;;;;;;5019022;28;20774;-80
2022/09/30 05:34:21;;;;;;;16.50;11.83;;;6.70;99.90;;;;;;5017925;28;20234;-80
2022/09/30 05:36:48;;;;;;;14.00;11.27;;;6.70;99.90;;;;;;5027638;28;20333;-81
2022/09/30 05:39:15;;;;;;;16.17;12.33;;;6.60;99.90;;;;;;5027787;28;20653;-86
2022/09/30 05:41:42;;;;;;;19.80;12.20;;;6.60;99.90;;;;;;5023474;28;20224;-80
2022/09/30 05:44:09;;;;;;;16.67;11.87;;;6.60;99.90;;;;;;5024083;28;20243;-82
2022/09/30 05:46:37;;;;;;;16.03;12.47;;;6.50;99.90;;;;;;5024180;28;20259;-80
2022/09/30 05:49:07;;;;;;;18.03;12.77;;;6.60;99.90;;;;;;5029390;28;20230;-79
2022/09/30 05:51:35;;;;;;;16.27;12.40;;;6.50;99.90;;;;;;5007866;28;20246;-85
2022/09/30 05:54:02;;;;;;;15.37;12.23;;;6.50;99.90;;;;;;5010260;28;20787;-83
2022/09/30 05:56:29;;;;;;;20.13;13.20;;;6.50;99.90;;;;;;5018565;28;20624;-79
2022/09/30 05:58:55;;;;;;;15.90;13.50;;;6.50;99.90;;;;;;5021630;28;20240;-80
2022/09/30 06:01:22;;;;;;;16.50;13.57;;;6.50;99.90;;;;;;5020503;28;20226;-84
2022/09/30 06:03:48;;;;;;;15.60;12.60;;;6.50;99.90;;;;;;5025069;28;20227;-81
2022/09/30 06:06:16;;;;;;;17.23;13.73;;;6.50;99.90;;;;;;5026506;28;20226;-85
2022/09/30 06:08:44;;;;;;;22.97;13.53;;;6.50;99.90;;;;;;5020689;28;20234;-84
2022/09/30 06:11:13;;;;;;;19.17;13.70;;;6.50;99.90;;;;;;5019092;28;20912;-83
2022/09/30 06:13:40;;;;;;;17.43;14.53;;;6.50;99.90;;;;;;5022828;28;20718;-85
2022/09/30 06:16:08;;;;;;;18.60;14.70;;;6.50;99.90;;;;;;5024780;28;20227;-83
2022/09/30 06:18:37;;;;;;;17.83;15.20;;;6.60;99.90;;;;;;5023608;28;20787;-87
2022/09/30 06:21:05;;;;;;;16.53;13.23;;;6.60;99.90;;;;;;5025245;28;20224;-81
2022/09/30 06:23:35;;;;;;;19.17;14.63;;;6.60;99.90;;;;;;5021458;28;20230;-83
2022/09/30 06:26:07;;;;;;;17.87;14.27;;;6.60;99.90;;;;;;5016776;28;20241;-80
2022/09/30 06:28:36;;;;;;;19.40;15.03;;;6.70;99.90;;;;;;5012204;28;20227;-83
2022/09/30 06:31:05;;;;;;;19.23;14.97;;;6.70;99.90;;;;;;5020979;28;20261;-81
2022/09/30 06:33:33;;;;;;;19.07;14.47;;;6.70;99.90;;;;;;5010167;28;20240;-84
2022/09/30 06:36:03;;;;;;;17.13;15.23;;;6.70;99.90;;;;;;5015040;28;20727;-80
2022/09/30 06:38:30;;;;;;;19.67;15.40;;;6.80;99.90;;;;;;5013825;28;20604;-81
2022/09/30 06:40:58;;;;;;;16.43;14.60;;;6.90;99.90;;;;;;5020357;28;20233;-83
2022/09/30 06:43:29;;;;;;;16.33;14.60;;;6.90;99.90;;;;;;5017318;28;20225;-82
2022/09/30 06:45:56;;;;;;;17.13;14.60;;;6.90;99.90;;;;;;5019952;28;20311;-81
2022/09/30 06:48:23;;;;;;;17.53;14.93;;;7.00;99.90;;;;;;5013147;28;20477;-81
2022/09/30 06:50:54;;;;;;;17.40;14.87;;;7.00;99.90;;;;;;5017821;28;20239;-81
2022/09/30 06:53:21;;;;;;;17.83;14.47;;;7.10;99.90;;;;;;5015743;28;20229;-81
2022/09/30 06:55:54;;;;;;;18.80;15.47;;;7.10;99.90;;;;;;5017124;28;20221;-82
2022/09/30 06:58:22;;;;;;;16.93;14.90;;;7.20;99.90;;;;;;5017588;28;20237;-82
2022/09/30 07:00:59;;;;;;;18.90;15.40;;;7.20;99.90;;;;;;5013811;28;20237;-83
2022/09/30 07:03:30;;;;;;;18.30;14.83;;;7.30;99.90;;;;;;5018980;28;20756;-81
2022/09/30 07:05:58;;;;;;;16.77;14.80;;;7.30;99.90;;;;;;5029733;28;20320;-81
2022/09/30 07:08:28;;;;;;;16.00;14.00;;;7.40;99.90;;;;;;5024187;28;20241;-80
2022/09/30 07:10:57;;;;;;;15.63;14.03;;;7.40;99.90;;;;;;5015133;28;20227;-82
2022/09/30 07:13:24;;;;;;;18.83;14.23;;;7.50;99.90;;;;;;5020206;28;20260;-81
2022/09/30 07:15:55;;;;;;;17.57;13.70;;;7.60;99.90;;;;;;5024748;28;20821;-80
2022/09/30 07:18:29;;;;;;;16.63;13.77;;;7.60;99.90;;;;;;5014442;28;20304;-80
2022/09/30 07:20:59;;;;;;;17.77;13.23;;;7.60;99.90;;;;;;5012509;28;20347;-82
2022/09/30 07:23:25;;;;;;;15.03;13.37;;;7.70;99.90;;;;;;5017025;28;20228;-81
2022/09/30 07:25:56;;;;;;;15.87;12.93;;;7.80;99.90;;;;;;5021012;28;20808;-84
2022/09/30 07:28:26;;;;;;;14.90;12.97;;;7.90;99.90;;;;;;5018128;28;20233;-82
2022/09/30 07:30:56;;;;;;;15.93;12.20;;;7.90;99.90;;;;;;5013668;28;20226;-84
2022/09/30 07:33:28;;;;;;;13.57;12.17;;;8.00;99.90;;;;;;5009474;28;20321;-80
2022/09/30 07:35:56;;;;;;;13.70;12.30;;;8.10;99.90;;;;;;5022669;28;20287;-81
2022/09/30 07:38:28;;;;;;;13.70;11.57;;;8.20;99.90;;;;;;5021535;28;20316;-80
2022/09/30 07:40:57;;;;;;;13.47;11.60;;;8.30;99.90;;;;;;5024120;28;20318;-80
2022/09/30 07:43:26;;;;;;;12.57;11.10;;;8.30;99.90;;;;;;5021138;28;20247;-82
2022/09/30 07:45:55;;;;;;;12.30;11.00;;;8.40;99.90;;;;;;5022552;28;20420;-83
2022/09/30 07:48:41;;;;;;;12.70;11.20;;;8.50;99.90;;;;;;5022676;28;20314;-83
2022/09/30 07:51:11;;;;;;;12.70;11.00;;;8.50;99.90;;;;;;5019549;28;20225;-81
2022/09/30 07:53:40;;;;;;;12.90;11.53;;;8.60;99.90;;;;;;5019738;28;20232;-84
2022/09/30 07:56:08;;;;;;;11.80;10.37;;;8.70;99.90;;;;;;5020567;28;20233;-85
2022/09/30 07:58:37;;;;;;;12.03;10.30;;;8.70;99.90;;;;;;5013381;28;20236;-84
2022/09/30 08:01:07;;;;;;;11.80;10.60;;;8.70;99.90;;;;;;5006831;28;20227;-85
2022/09/30 08:03:37;;;;;;;12.53;10.83;;;8.80;99.90;;;;;;5012920;28;20679;-85
2022/09/30 08:06:15;;;;;;;12.43;10.33;;;8.80;99.90;;;;;;5013350;28;20225;-84
2022/09/30 08:08:44;;;;;;;11.97;10.57;;;8.90;99.90;;;;;;5012234;28;20243;-86
2022/09/30 08:11:12;;;;;;;12.57;11.10;;;9.00;99.90;;;;;;5013546;28;20287;-86
2022/09/30 08:13:39;;;;;;;11.67;10.33;;;9.10;99.90;;;;;;5023095;28;20241;-85
2022/09/30 08:16:06;;;;;;;12.27;10.83;;;9.20;99.90;;;;;;5004301;28;20229;-84
2022/09/30 08:18:33;;;;;;;11.10;9.90;;;9.30;99.90;;;;;;5012752;28;20236;-86
2022/09/30 08:21:04;;;;;;;12.40;10.83;;;9.40;99.90;;;;;;5015838;28;20887;-85
2022/09/30 08:23:31;;;;;;;11.20;10.10;;;9.50;99.90;;;;;;5014988;28;20259;-85
2022/09/30 08:26:03;;;;;;;11.33;9.77;;;9.70;99.90;;;;;;5015068;28;20272;-85
2022/09/30 08:28:31;;;;;;;11.83;9.30;;;9.90;99.90;;;;;;5003587;28;20312;-86
2022/09/30 08:31:07;;;;;;;10.70;9.23;;;10.20;99.90;;;;;;5006291;28;20287;-85
2022/09/30 08:33:34;;;;;;;11.97;8.77;;;10.60;99.90;;;;;;4991632;28;20851;-85
2022/09/30 08:36:06;;;;;;;9.20;8.17;;;11.10;99.90;;;;;;5016292;28;20233;-84
2022/09/30 08:38:33;;;;;;;10.57;7.77;;;11.60;99.90;;;;;;5008244;28;20232;-85
2022/09/30 08:41:11;;;;;;;9.63;7.80;;;12.30;99.90;;;;;;5011720;28;20812;-86
2022/09/30 08:43:49;;;;;;;8.03;7.20;;;13.10;99.90;;;;;;4996634;28;20225;-85
2022/09/30 08:46:26;;;;;;;6.83;6.10;;;13.90;99.90;;;;;;5008935;28;20281;-85
2022/09/30 08:49:01;;;;;;;7.57;5.97;;;14.60;99.90;;;;;;5011265;28;20235;-85
2022/09/30 08:51:33;;;;;;;6.93;6.20;;;15.30;99.90;;;;;;5007320;28;20302;-86
2022/09/30 08:54:03;;;;;;;6.50;5.87;;;15.80;99.90;;;;;;5014267;28;20318;-86
2022/09/30 08:56:34;;;;;;;6.67;6.07;;;16.20;99.90;;;;;;5005737;28;20347;-84
2022/09/30 08:59:06;;;;;;;6.30;5.70;;;16.50;99.90;;;;;;5010982;28;20593;-85
2022/09/30 09:01:35;;;;;;;6.13;5.40;;;16.90;99.90;;;;;;5016250;28;20297;-85
2022/09/30 09:04:05;;;;;;;7.83;5.10;;;17.10;99.90;;;;;;5009014;28;20231;-85
2022/09/30 09:06:39;;;;;;;5.33;4.83;;;17.40;99.90;;;;;;5007785;28;20942;-85
2022/09/30 09:09:28;;;;;;;5.73;4.77;;;17.80;99.90;;;;;;5010985;28;20226;-85
2022/09/30 09:12:14;;;;;;;4.83;4.10;;;18.00;99.90;;;;;;5013064;28;20318;-85
2022/09/30 09:14:53;;;;;;;4.67;3.83;;;18.30;99.90;;;;;;5007718;28;20230;-85
2022/09/30 09:17:30;;;;;;;4.60;3.87;;;18.50;99.90;;;;;;5010706;28;20783;-85
2022/09/30 09:20:03;;;;;;;4.80;4.03;;;18.60;99.90;;;;;;5011291;28;20231;-84
2022/09/30 09:22:31;;;;;;;4.80;3.57;;;18.70;99.90;;;;;;5033244;28;20295;-84
2022/09/30 09:24:59;;;;;;;4.53;3.50;;;18.70;99.90;;;;;;5016901;28;20232;-84
2022/09/30 09:27:45;;;;;;;5.07;2.90;;;18.90;99.90;;;;;;5015469;28;20236;-85
2022/09/30 09:30:13;;;;;;;2.87;2.60;;;19.00;99.90;;;;;;5016069;28;20228;-85
2022/09/30 09:32:41;;;;;;;3.37;2.80;;;19.30;99.90;;;;;;5009246;28;20779;-84
2022/09/30 09:35:15;;;;;;;4.30;2.10;;;19.60;99.90;;;;;;5018250;28;20263;-85
2022/09/30 09:40:56;;;;;;;2.10;1.90;;;20.10;99.10;;;;;;5012450;28;20827;-84
2022/09/30 09:43:32;;;;;;;1.77;1.50;;;20.40;98.70;;;;;;5015013;28;20219;-84
2022/09/30 09:46:08;;;;;;;1.67;1.57;;;20.50;98.50;;;;;;5016214;28;20222;-85
2022/09/30 09:48:36;;;;;;;1.90;1.57;;;20.70;98.90;;;;;;5009840;28;20376;-85
2022/09/30 09:51:10;;;;;;;1.65;1.55;;;20.90;98.60;;;;;;5015043;28;20235;-84
2022/09/30 09:53:46;;;;;;;1.60;1.50;;;20.90;96.50;;;;;;5013001;28;20792;-84
2022/09/30 09:56:18;;;;;;;4.23;1.50;;;21.00;97.00;;;;;;5012528;28;20231;-84
2022/09/30 09:59:09;;;;;;;7.73;1.70;;;20.80;95.70;;;;;;5012048;28;20501;-85
2022/09/30 10:01:40;;;;;;;2.73;1.73;;;20.50;94.90;;;;;;5006446;28;20325;-84
2022/09/30 10:04:16;;;;;;;1.93;1.57;;;20.30;96.50;;;;;;5016907;28;20634;-84
2022/09/30 10:06:52;;;;;;;1.53;1.43;;;20.10;95.90;;;;;;5006791;28;20299;-86
2022/09/30 10:09:31;;;;;;;3.30;2.40;;;19.80;96.00;;;;;;5015118;28;20228;-84
2022/09/30 10:12:26;;;;;;;2.33;1.60;;;19.60;96.20;;;;;;5014052;28;20254;-83
2022/09/30 10:15:02;;;;;;;2.47;1.30;;;19.30;96.60;;;;;;5007609;28;20247;-84
2022/09/30 10:17:31;;;;;;;2.20;1.37;;;19.00;97.00;;;;;;5019724;28;20946;-84
2022/09/30 10:20:03;;;;;;;2.73;1.60;;;18.80;96.60;;;;;;5020365;28;20221;-84
2022/09/30 10:22:31;;;;;;;2.90;1.60;;;18.50;96.00;;;;;;5015853;28;20218;-84
2022/09/30 10:25:20;;;;;;;2.53;1.87;;;18.20;97.10;;;;;;5020791;28;20238;-84
2022/09/30 10:27:49;;;;;;;2.53;1.90;;;17.90;96.40;;;;;;5027678;28;20225;-84
2022/09/30 10:30:49;;;;;;;2.50;2.13;;;17.70;97.80;;;;;;5019648;28;20257;-84
2022/09/30 10:33:25;;;;;;;2.80;2.37;;;17.40;97.30;;;;;;5006531;28;20216;-85
2022/09/30 10:36:03;;;;;;;3.47;1.87;;;17.20;98.00;;;;;;5019412;28;20226;-84
2022/09/30 10:38:33;;;;;;;2.10;1.90;;;17.10;99.00;;;;;;5023080;28;20230;-83
2022/09/30 10:41:01;;;;;;;2.57;2.27;;;17.00;99.50;;;;;;5016140;28;20266;-84
2022/09/30 10:43:31;;;;;;;2.63;2.00;;;17.00;99.50;;;;;;5024613;28;20227;-84
2022/09/30 10:46:02;;;;;;;3.80;2.00;;;16.90;99.60;;;;;;5014389;28;20857;-84
2022/09/30 10:48:33;;;;;;;3.10;2.20;;;17.00;99.50;;;;;;5018206;28;20253;-84
2022/09/30 10:51:04;;;;;;;3.27;1.80;;;16.90;99.60;;;;;;5014755;28;20248;-84
2022/09/30 10:53:34;;;;;;;2.93;2.00;;;16.90;99.60;;;;;;5017629;28;20645;-84
2022/09/30 10:56:04;;;;;;;2.33;1.90;;;16.90;99.50;;;;;;5016506;28;20305;-84
2022/09/30 10:58:42;;;;;;;3.00;1.70;;;16.80;99.60;;;;;;5012127;28;20237;-84
2022/09/30 11:01:21;;;;;;;3.77;1.37;;;16.80;99.80;;;;;;5021449;28;20236;-84
2022/09/30 11:04:00;;;;;;;3.00;1.40;;;16.90;99.90;;;;;;5019056;28;20227;-85
2022/09/30 11:06:30;;;;;;;1.77;1.10;;;17.20;99.90;;;;;;5034021;28;20274;-84
2022/09/30 11:09:04;;;;;;;2.93;1.20;;;17.50;99.50;;;;;;5007954;28;20257;-83
2022/09/30 11:11:38;;;;;;;2.27;1.07;;;17.90;97.70;;;;;;5039499;28;20226;-84
2022/09/30 11:14:21;;;;;;;1.60;0.83;;;18.20;98.10;;;;;;5008632;28;20340;-82
2022/09/30 11:16:57;;;;;;;1.40;0.90;;;18.60;97.70;;;;;;4999363;28;20293;-85
2022/09/30 11:19:29;;;;;;;1.73;1.00;;;18.90;97.60;;;;;;5011667;28;20243;-84
2022/09/30 11:22:00;;;;;;;2.50;1.50;;;19.20;96.70;;;;;;5017464;28;20782;-84
2022/09/30 11:24:37;;;;;;;2.40;1.47;;;19.30;96.40;;;;;;5015557;28;20248;-84
2022/09/30 11:27:12;;;;;;;1.77;1.50;;;19.40;95.40;;;;;;5013994;28;20235;-84
2022/09/30 11:30:02;;;;;;;1.47;1.23;;;19.40;94.50;;;;;;5018675;28;20303;-83
2022/09/30 11:32:51;;;;;;;3.77;1.27;;;19.30;94.70;;;;;;5019942;28;20772;-83
2022/09/30 11:35:36;;;;;;;2.30;1.10;;;19.10;95.10;;;;;;5011346;28;20329;-83
2022/09/30 11:38:12;;;;;;;1.90;1.50;;;18.90;95.10;;;;;;5010345;28;20599;-84
2022/09/30 11:40:45;;;;;;;3.00;1.70;;;18.70;95.30;;;;;;5007934;28;20791;-83
2022/09/30 11:43:21;;;;;;;2.40;1.43;;;18.50;95.70;;;;;;5015768;28;21162;-84
2022/09/30 11:46:09;;;;;;;2.80;1.10;;;18.40;96.10;;;;;;5010373;28;20240;-83
2022/09/30 11:48:54;;;;;;;2.10;1.10;;;18.30;96.20;;;;;;4999717;28;20231;-83
2022/09/30 11:51:30;;;;;;;1.83;1.10;;;18.30;96.00;;;;;;5016806;28;20618;-83
2022/09/30 11:54:08;;;;;;;2.30;0.97;;;18.60;95.90;;;;;;5019002;28;20230;-83
2022/09/30 11:56:45;;;;;;;1.53;1.10;;;18.80;96.20;;;;;;5013726;28;20232;-84
2022/09/30 11:59:19;;;;;;;1.50;1.00;;;19.10;95.60;;;;;;5017835;28;20231;-84
2022/09/30 12:01:51;;;;;;;1.52;0.98;;;19.40;95.90;;;;;;5016894;28;20229;-83
2022/09/30 12:04:24;;;;;;;2.77;1.03;;;19.70;93.70;;;;;;5023204;28;20225;-83
2022/09/30 12:06:56;;;;;;;1.67;1.20;;;20.00;93.10;;;;;;5016241;28;20723;-85
2022/09/30 12:09:27;;;;;;;1.33;0.93;;;20.20;93.00;;;;;;5017692;28;20240;-84
2022/09/30 12:12:00;;;;;;;1.27;1.00;;;20.30;93.50;;;;;;5012437;28;20225;-83
2022/09/30 12:14:33;;;;;;;3.77;1.30;;;20.30;92.60;;;;;;5010938;28;20996;-83
2022/09/30 12:17:04;;;;;;;1.50;1.13;;;20.20;92.50;;;;;;5032420;28;20239;-83
2022/09/30 12:19:38;;;;;;;1.03;0.90;;;20.00;91.90;;;;;;5011864;28;20232;-83
2022/09/30 12:22:12;;;;;;;2.17;1.10;;;19.70;91.50;;;;;;5013990;28;20236;-83
2022/09/30 12:24:41;;;;;;;2.17;1.10;;;19.40;92.00;;;;;;5016524;28;20226;-83
2022/09/30 12:27:16;;;;;;;1.93;1.00;;;19.20;92.80;;;;;;5012360;28;20237;-84
2022/09/30 12:33:09;;;;;;;1.70;1.43;;;19.00;92.60;;;;;;5011746;28;20228;-84
2022/09/30 12:36:08;;;;;;;2.60;2.07;;;19.00;92.60;;;;;;5016190;28;20894;-83
2022/09/30 12:38:56;;;;;;;4.97;2.30;;;19.00;91.90;;;;;;5009867;28;20312;-84
2022/09/30 12:41:38;;;;;;;4.57;2.90;;;19.10;92.50;;;;;;5004444;28;20248;-83
2022/09/30 12:44:43;;;;;;;3.53;2.47;;;19.20;91.50;;;;;;5015398;28;20240;-83
2022/09/30 12:47:27;;;;;;;4.00;2.40;;;19.30;91.40;;;;;;5026442;28;20727;-83
2022/09/30 12:49:57;;;;;;;2.63;2.43;;;19.40;91.60;;;;;;5017161;28;20249;-83
2022/09/30 12:52:34;;;;;;;2.90;2.60;;;19.50;92.60;;;;;;5011367;28;20234;-83
2022/09/30 12:55:05;;;;;;;4.53;3.20;;;19.50;92.50;;;;;;5019698;28;20319;-83
2022/09/30 12:57:40;;;;;;;3.13;2.70;;;19.60;92.20;;;;;;5014442;28;20235;-83
2022/09/30 13:00:15;;;;;;;4.00;2.90;;;19.70;91.40;;;;;;5009995;28;20610;-83
2022/09/30 13:02:44;;;;;;;3.50;2.60;;;19.70;90.80;;;;;;5015079;28;20235;-83
2022/09/30 13:05:58;;;;;;;4.33;2.80;;;19.90;91.30;;;;;;5018181;28;20232;-83
2022/09/30 13:08:49;;;;;;;2.80;2.33;;;19.90;90.60;;;;;;5024568;28;20236;-83
2022/09/30 13:11:36;;;;;;;3.33;2.47;;;19.90;89.90;;;;;;5008678;28;20347;-83
2022/09/30 13:14:31;;;;;;;4.67;2.77;;;19.90;89.30;;;;;;5011406;28;20252;-83
2022/09/30 13:17:00;;;;;;;4.80;3.20;;;19.80;85.90;;;;;;5006447;28;20228;-82